Time;durP1;ratioP1;P1;durP2;ratioP2;P2;SDS_P1;SDS_P2;PMS_P1;PMS_P2;Temp;Humidity;BMP_temperature;BMP_pressure;BME280_temperature;BME280_humidity;BME280_pressure;Samples;Min_cycle;Max_cycle;Signal;HPM_P1;HPM_P2
2022/05/10 00:02:19;;;;;;;7.77;7.17;;;;;;;13.31;75.86;96196.94;5001714;28;20695;-79
2022/05/10 00:04:49;;;;;;;8.67;7.90;;;;;;;13.25;75.86;96189.75;4993313;28;20204;-79
2022/05/10 00:07:14;;;;;;;8.17;7.37;;;;;;;13.29;76.28;96185.84;5031304;28;20191;-79
2022/05/10 00:09:39;;;;;;;7.83;7.07;;;;;;;13.38;75.54;96180.72;5033907;28;20525;-78
2022/05/10 00:12:05;;;;;;;8.03;7.10;;;;;;;13.42;75.48;96182.03;5014662;28;20191;-77
2022/05/10 00:14:31;;;;;;;8.30;7.50;;;;;;;13.47;74.82;96180.63;4997616;28;20210;-78
2022/05/10 00:16:56;;;;;;;8.40;7.70;;;;;;;13.56;74.71;96184.13;4986852;28;20225;-79
2022/05/10 00:19:22;;;;;;;7.67;7.07;;;;;;;13.56;74.49;96181.53;5023058;28;20229;-79
2022/05/10 00:21:48;;;;;;;8.03;7.33;;;;;;;13.55;74.38;96177.28;5004369;28;20198;-79
2022/05/10 00:24:14;;;;;;;8.20;7.40;;;;;;;13.52;74.14;96185.41;5003519;28;20558;-79
2022/05/10 00:26:39;;;;;;;7.83;7.13;;;;;;;13.53;74.18;96180.03;5004166;28;20647;-78
2022/05/10 00:29:05;;;;;;;8.47;7.70;;;;;;;13.54;74.17;96175.66;5019668;28;20187;-79
2022/05/10 00:31:30;;;;;;;8.47;7.67;;;;;;;13.57;73.88;96172.72;4987120;28;20756;-79
2022/05/10 00:33:57;;;;;;;8.63;7.73;;;;;;;13.58;73.99;96171.75;4995197;28;20187;-80
2022/05/10 00:36:23;;;;;;;8.13;7.30;;;;;;;13.66;73.76;96166.59;5003052;28;20199;-80
2022/05/10 00:38:49;;;;;;;7.50;6.80;;;;;;;13.63;73.96;96174.75;5001292;28;20207;-80
2022/05/10 00:41:17;;;;;;;8.03;7.37;;;;;;;13.59;73.92;96174.19;4984893;28;20171;-79
2022/05/10 00:43:46;;;;;;;7.93;7.20;;;;;;;13.56;74.07;96177.13;5000157;28;20183;-78
2022/05/10 00:46:15;;;;;;;8.43;7.50;;;;;;;13.55;74.25;96187.72;5000733;28;20206;-79
2022/05/10 00:48:49;;;;;;;7.90;7.20;;;;;;;13.53;74.25;96176.63;5000726;28;20667;-78
2022/05/10 00:51:39;;;;;;;8.47;7.67;;;;;;;13.57;74.17;96167.50;4984304;28;20355;-79
2022/05/10 00:54:27;;;;;;;8.07;7.37;;;;;;;13.59;73.90;96160.34;5018278;28;20199;-79
2022/05/10 00:57:22;;;;;;;7.43;6.73;;;;;;;13.60;73.81;96156.75;5018730;28;20542;-79
2022/05/10 00:59:56;;;;;;;10.83;7.50;;;;;;;13.72;73.43;96149.53;5000329;28;20204;-79
2022/05/10 01:02:30;;;;;;;8.10;7.40;;;;;;;13.66;73.54;96143.09;4983836;28;20189;-78
2022/05/10 01:04:59;;;;;;;7.27;6.67;;;;;;;13.60;73.87;96147.16;5000119;28;20195;-79
2022/05/10 01:07:35;;;;;;;7.73;6.97;;;;;;;13.68;73.34;96142.94;4983876;28;20187;-79
2022/05/10 01:10:59;;;;;;;8.37;7.67;;;;;;;13.65;73.53;96140.66;4983785;28;20234;-79
2022/05/10 01:14:08;;;;;;;7.70;7.00;;;;;;;13.56;73.75;96137.16;4937789;29;20332;-78
2022/05/10 01:16:34;;;;;;;8.03;7.33;;;;;;;13.56;73.74;96137.16;4921090;29;20300;-79
2022/05/10 01:18:59;;;;;;;8.30;7.60;;;;;;;13.61;73.59;96119.28;4921217;29;20217;-79
2022/05/10 01:21:49;;;;;;;7.60;6.90;;;;;;;13.60;73.39;96128.91;4921000;29;20182;-79
2022/05/10 01:24:40;;;;;;;13.33;7.53;;;;;;;13.63;73.19;96122.53;4937064;29;20213;-79
2022/05/10 01:27:31;;;;;;;8.40;7.50;;;;;;;13.70;73.54;96117.53;4937155;29;20556;-79
2022/05/10 01:30:07;;;;;;;8.10;7.30;;;;;;;13.68;73.33;96114.25;4939919;29;20208;-78
2022/05/10 01:35:32;;;;;;;10.57;7.47;;;;;;;13.58;73.66;96116.94;4942035;29;20232;-79
2022/05/10 01:38:05;;;;;;;7.67;6.97;;;;;;;13.64;73.84;96118.16;4926645;29;20185;-78
2022/05/10 01:40:45;;;;;;;8.20;7.40;;;;;;;13.69;73.58;96108.88;4939486;29;20162;-78
2022/05/10 01:43:18;;;;;;;8.67;7.87;;;;;;;13.69;73.72;96111.47;4940160;29;20224;-77
2022/05/10 01:45:49;;;;;;;8.13;7.43;;;;;;;13.75;73.54;96107.44;4960903;29;20318;-78
2022/05/10 01:48:23;;;;;;;8.33;7.53;;;;;;;13.73;73.65;96106.78;4956343;28;20199;-78
2022/05/10 01:50:56;;;;;;;8.23;7.50;;;;;;;13.71;73.39;96111.34;5017235;28;20217;-78
2022/05/10 01:53:30;;;;;;;7.90;7.20;;;;;;;13.82;73.25;96100.66;5020667;28;20159;-78
2022/05/10 01:56:17;;;;;;;8.90;8.10;;;;;;;13.77;73.39;96114.16;5019709;28;20202;-78
2022/05/10 01:58:44;;;;;;;8.77;7.53;;;;;;;13.70;73.68;96105.31;5020415;28;20155;-78
2022/05/10 02:01:27;;;;;;;8.43;7.73;;;;;;;13.70;73.65;96107.91;5020506;28;20190;-78
2022/05/10 02:04:08;;;;;;;8.10;7.30;;;;;;;13.67;73.56;96112.59;5003665;28;20176;-78
2022/05/10 02:06:47;;;;;;;7.57;6.87;;;;;;;13.65;73.70;96107.53;5004185;28;20183;-78
2022/05/10 02:09:41;;;;;;;8.37;7.30;;;;;;;13.69;74.00;96110.66;5020534;28;20175;-78
2022/05/10 02:12:13;;;;;;;8.00;7.30;;;;;;;13.66;73.96;96106.56;5018126;28;20191;-78
2022/05/10 02:14:40;;;;;;;7.63;6.93;;;;;;;13.71;73.84;96108.75;5003305;28;20191;-78
2022/05/10 02:17:15;;;;;;;8.43;7.63;;;;;;;13.64;73.89;96105.09;5004078;28;20195;-78
2022/05/10 02:19:54;;;;;;;8.47;7.67;;;;;;;13.59;74.05;96100.31;5020134;28;20194;-77
2022/05/10 02:22:24;;;;;;;7.53;6.93;;;;;;;13.48;74.67;96100.56;5020309;28;20194;-78
2022/05/10 02:24:58;;;;;;;8.53;7.83;;;;;;;13.45;75.03;96103.50;5002375;28;20215;-79
2022/05/10 02:27:36;;;;;;;7.50;6.77;;;;;;;13.45;74.63;96093.06;5018732;28;20156;-79
2022/05/10 02:30:13;;;;;;;9.00;8.07;;;;;;;13.43;75.00;96090.59;5003867;28;20183;-78
2022/05/10 02:35:25;;;;;;;8.23;7.43;;;;;;;13.52;74.89;96089.69;5021917;28;20206;-78
2022/05/10 02:37:51;;;;;;;8.13;7.43;;;;;;;13.45;74.92;96093.88;5020199;28;20209;-78
2022/05/10 02:40:16;;;;;;;8.60;7.90;;;;;;;13.41;75.08;96087.31;5003668;28;20190;-78
2022/05/10 02:42:44;;;;;;;8.50;7.80;;;;;;;13.40;75.21;96096.09;5037022;28;20222;-78
2022/05/10 02:45:12;;;;;;;8.87;8.00;;;;;;;13.31;75.69;96087.41;5003277;28;20183;-78
2022/05/10 02:47:40;;;;;;;8.63;7.93;;;;;;;13.30;75.68;96087.56;5037011;28;20620;-79
2022/05/10 02:50:08;;;;;;;8.23;7.40;;;;;;;13.41;75.80;96086.50;5019909;28;20396;-78
2022/05/10 02:52:33;;;;;;;8.37;7.60;;;;;;;13.37;75.82;96087.78;5003621;28;20179;-79
2022/05/10 02:55:05;;;;;;;8.80;7.93;;;;;;;13.28;75.67;96090.31;5019018;28;20194;-79
2022/05/10 02:57:31;;;;;;;8.80;8.00;;;;;;;13.24;75.92;96091.56;5019855;28;20191;-79
2022/05/10 02:59:59;;;;;;;9.27;8.47;;;;;;;13.22;76.43;96080.47;5019830;28;20183;-78
2022/05/10 03:02:29;;;;;;;8.47;7.67;;;;;;;13.24;76.50;96075.94;5019900;28;20247;-78
2022/05/10 03:04:57;;;;;;;9.40;8.43;;;;;;;13.19;76.58;96078.19;5019201;28;20251;-79
2022/05/10 03:07:23;;;;;;;11.43;8.93;;;;;;;13.23;76.60;96078.69;5019763;28;20163;-79
2022/05/10 03:09:48;;;;;;;8.40;7.70;;;;;;;13.17;76.67;96080.09;5019756;28;20179;-78
2022/05/10 03:12:14;;;;;;;9.33;8.17;;;;;;;13.19;76.76;96069.50;5019825;28;20370;-77
2022/05/10 03:14:39;;;;;;;8.37;7.47;;;;;;;13.10;77.66;96076.44;5018852;28;20199;-78
2022/05/10 03:17:05;;;;;;;8.60;7.43;;;;;;;13.20;76.82;96079.00;5019733;28;20219;-79
2022/05/10 03:19:32;;;;;;;8.70;7.90;;;;;;;13.21;76.68;96073.63;5003346;28;20172;-77
2022/05/10 03:21:57;;;;;;;9.27;8.30;;;;;;;13.16;76.95;96072.41;5003689;28;20172;-78
2022/05/10 03:24:23;;;;;;;10.00;8.80;;;;;;;13.20;77.06;96076.41;5002851;28;20737;-79
2022/05/10 03:26:50;;;;;;;9.50;8.70;;;;;;;13.23;77.00;96074.28;5003571;28;20271;-78
2022/05/10 03:29:16;;;;;;;11.07;8.30;;;;;;;13.20;76.79;96074.59;5019625;28;20198;-78
2022/05/10 03:31:43;;;;;;;8.83;7.93;;;;;;;13.16;76.84;96075.81;5003409;28;20207;-77
2022/05/10 03:36:51;;;;;;;8.80;8.10;;;;;;;13.16;77.33;96078.44;5022126;28;20174;-78
2022/05/10 03:39:17;;;;;;;10.63;8.70;;;;;;;13.14;77.44;96075.16;5003284;28;20498;-78
2022/05/10 03:41:42;;;;;;;10.73;9.10;;;;;;;13.15;77.42;96076.81;5019533;28;20184;-78
2022/05/10 03:44:08;;;;;;;9.63;8.63;;;;;;;13.13;77.56;96073.53;5019203;28;20195;-77
2022/05/10 03:46:33;;;;;;;9.70;7.90;;;;;;;13.20;77.18;96074.59;5004852;28;20199;-78
2022/05/10 03:48:59;;;;;;;9.70;8.60;;;;;;;13.16;77.33;96077.63;5022381;28;20182;-77
2022/05/10 03:51:24;;;;;;;9.53;8.63;;;;;;;13.22;76.92;96075.25;5022334;28;20203;-78
2022/05/10 03:53:49;;;;;;;9.20;8.40;;;;;;;13.29;76.54;96078.09;5021749;28;20168;-78
2022/05/10 03:56:15;;;;;;;9.50;8.67;;;;;;;13.38;76.29;96082.41;5022369;28;20180;-78
2022/05/10 03:58:57;;;;;;;9.60;8.40;;;;;;;13.41;75.92;96076.06;5044496;28;20178;-78
2022/05/10 04:01:23;;;;;;;8.73;7.93;;;;;;;13.47;75.62;96071.06;5027026;28;20230;-78
2022/05/10 04:03:49;;;;;;;8.50;7.70;;;;;;;13.48;75.54;96071.88;5026753;28;20210;-78
2022/05/10 04:06:16;;;;;;;9.13;8.33;;;;;;;13.51;75.56;96074.16;5041264;28;20199;-78
2022/05/10 04:08:41;;;;;;;8.20;7.50;;;;;;;13.68;74.49;96075.09;5041667;28;20167;-78
2022/05/10 04:11:09;;;;;;;8.80;7.90;;;;;;;13.80;73.92;96077.31;5042652;28;20187;-77
2022/05/10 04:13:34;;;;;;;8.87;8.07;;;;;;;13.85;73.93;96069.81;5043147;28;20171;-78
2022/05/10 04:16:04;;;;;;;8.07;7.27;;;;;;;13.96;73.12;96073.13;5058281;28;20208;-78
2022/05/10 04:18:30;;;;;;;7.73;7.03;;;;;;;14.02;73.09;96064.69;5014198;28;20185;-78
2022/05/10 04:20:58;;;;;;;8.53;7.33;;;;;;;14.17;72.73;96063.94;5012395;28;20175;-79
2022/05/10 04:23:23;;;;;;;8.00;7.30;;;;;;;14.32;71.90;96065.97;5028383;28;20205;-79
2022/05/10 04:25:48;;;;;;;8.80;7.90;;;;;;;14.42;71.58;96062.25;5010782;28;20214;-78
2022/05/10 04:28:14;;;;;;;8.27;7.57;;;;;;;14.60;70.68;96061.34;5025358;28;20174;-77
2022/05/10 04:30:39;;;;;;;8.17;7.43;;;;;;;14.79;69.91;96066.28;5007981;28;20205;-78
2022/05/10 04:33:04;;;;;;;7.80;7.00;;;;;;;14.89;69.53;96064.31;5024144;28;20178;-78
2022/05/10 04:35:30;;;;;;;9.47;7.67;;;;;;;15.06;68.87;96073.00;5006501;28;20206;-79
2022/05/10 04:37:55;;;;;;;8.17;7.37;;;;;;;15.16;68.19;96065.81;5007896;28;20188;-79
2022/05/10 04:43:05;;;;;;;7.90;7.20;;;;;;;15.63;66.60;96065.16;5042289;28;20196;-81
2022/05/10 04:45:33;;;;;;;8.23;7.20;;;;;;;16.08;64.83;96074.25;5027659;28;20227;-79
2022/05/10 04:47:59;;;;;;;7.47;6.78;;;;;;;17.21;61.87;96072.00;5023499;28;20178;-79
2022/05/10 04:50:24;;;;;;;7.50;6.72;;;;;;;18.64;55.82;96073.53;5008154;28;20271;-80
2022/05/10 04:52:50;;;;;;;6.85;6.20;;;;;;;18.72;55.52;96075.22;5022094;28;20174;-78
2022/05/10 04:55:15;;;;;;;6.85;6.00;;;;;;;19.82;51.39;96077.50;5006323;28;20190;-79
2022/05/10 04:57:41;;;;;;;7.70;6.55;;;;;;;21.00;48.33;96092.31;5024486;28;20175;-80
2022/05/10 05:00:09;;;;;;;6.22;5.68;;;;;;;21.47;46.74;96085.31;5025033;28;20167;-79
2022/05/10 05:02:35;;;;;;;7.22;6.57;;;;;;;21.85;46.07;96092.63;5024194;28;20180;-81
2022/05/10 05:05:00;;;;;;;6.78;5.63;;;;;;;21.87;45.66;96093.22;5008068;28;20237;-81
2022/05/10 05:07:25;;;;;;;8.25;5.90;;;;;;;21.32;46.85;96096.06;5012712;28;20190;-81
2022/05/10 05:09:50;;;;;;;8.75;5.82;;;;;;;21.07;47.50;96098.41;5003448;28;20210;-78
2022/05/10 05:12:16;;;;;;;5.93;5.43;;;;;;;21.36;47.57;96102.56;5016506;28;20185;-78
2022/05/10 05:14:41;;;;;;;6.93;6.00;;;;;;;21.55;46.81;96095.66;5011423;28;20199;-79
2022/05/10 05:17:06;;;;;;;6.38;5.78;;;;;;;20.81;48.63;96103.63;5058250;28;20190;-78
2022/05/10 05:19:32;;;;;;;7.05;6.45;;;;;;;20.99;48.54;96111.00;5050314;28;20205;-78
2022/05/10 05:21:57;;;;;;;7.90;6.15;;;;;;;20.65;48.86;96110.84;5013270;28;20221;-78
2022/05/10 05:24:22;;;;;;;7.28;6.55;;;;;;;20.75;49.14;96114.94;5033373;28;20221;-78
2022/05/10 05:26:48;;;;;;;6.57;6.07;;;;;;;20.28;50.71;96111.25;5023090;28;20697;-77
2022/05/10 05:29:13;;;;;;;6.20;5.70;;;;;;;19.91;51.73;96107.97;5013132;28;20198;-78
2022/05/10 05:31:40;;;;;;;6.18;5.68;;;;;;;19.68;52.41;96102.13;5003374;28;20752;-78
2022/05/10 05:34:05;;;;;;;6.20;5.47;;;;;;;19.79;51.81;96109.53;5016323;28;20597;-78
2022/05/10 05:36:30;;;;;;;7.07;5.85;;;;;;;20.30;51.00;96112.69;5032580;28;20202;-78
2022/05/10 05:38:56;;;;;;;7.18;5.68;;;;;;;20.61;50.57;96119.38;5020544;28;20193;-78
2022/05/10 05:41:21;;;;;;;6.65;5.43;;;;;;;21.40;48.43;96119.66;5024335;28;20174;-78
2022/05/10 05:43:46;;;;;;;6.63;6.13;;;;;;;21.38;48.37;96115.56;5030266;28;20178;-78
2022/05/10 05:46:12;;;;;;;7.13;6.03;;;;;;;21.99;46.33;96112.75;5033664;28;20194;-79
2022/05/10 05:48:38;;;;;;;6.47;5.28;;;;;;;22.08;46.07;96116.00;5031407;28;20190;-78
2022/05/10 05:51:04;;;;;;;6.45;5.93;;;;;;;22.49;44.78;96113.09;5058825;28;20217;-79
2022/05/10 05:53:29;;;;;;;6.45;5.95;;;;;;;22.77;44.20;96116.25;5011540;28;20186;-78
2022/05/10 05:56:08;;;;;;;6.03;5.53;;;;;;;23.10;44.31;96110.03;5053496;28;20202;-79
2022/05/10 05:58:34;;;;;;;6.00;5.43;;;;;;;23.26;43.14;96114.81;5033077;28;20198;-78
2022/05/10 06:00:59;;;;;;;5.60;4.93;;;;;;;23.43;42.31;96115.94;5057425;28;20185;-77
2022/05/10 06:03:25;;;;;;;6.43;5.90;;;;;;;23.01;43.17;96114.75;5024448;28;20549;-78
2022/05/10 06:05:50;;;;;;;7.28;5.75;;;;;;;22.65;43.72;96112.63;5015644;28;20212;-78
2022/05/10 06:08:16;;;;;;;6.15;5.65;;;;;;;23.26;43.78;96114.81;5033503;28;20187;-79
2022/05/10 06:10:42;;;;;;;6.05;5.45;;;;;;;23.46;42.96;96114.69;5005369;28;20248;-78
2022/05/10 06:13:08;;;;;;;5.93;5.15;;;;;;;23.96;41.95;96112.09;5038490;28;20181;-78
2022/05/10 06:15:33;;;;;;;6.82;5.60;;;;;;;23.29;43.37;96114.38;5037108;28;20258;-78
2022/05/10 06:17:59;;;;;;;5.88;5.40;;;;;;;24.04;41.71;96116.31;5032255;28;20186;-79
2022/05/10 06:20:25;;;;;;;6.55;5.93;;;;;;;24.52;41.59;96113.81;5017610;28;20179;-79
2022/05/10 06:22:50;;;;;;;6.70;5.70;;;;;;;25.28;39.72;96123.13;5036467;28;20188;-76
2022/05/10 06:25:19;;;;;;;6.90;5.30;;;;;;;25.39;39.33;96109.88;5021995;28;20210;-78
2022/05/10 06:27:46;;;;;;;5.50;5.00;;;;;;;25.20;39.54;96115.47;5052163;28;20255;-79
2022/05/10 06:30:12;;;;;;;6.30;5.65;;;;;;;25.68;38.44;96116.19;5031160;28;20702;-79
2022/05/10 06:32:38;;;;;;;6.03;5.55;;;;;;;25.11;39.55;96117.63;5014266;28;20174;-79
2022/05/10 06:35:04;;;;;;;6.70;5.75;;;;;;;25.85;38.65;96124.34;5013402;28;20211;-79
2022/05/10 06:40:15;;;;;;;5.72;5.20;;;;;;;25.03;39.91;96117.94;5045577;28;20204;-80
2022/05/10 06:42:41;;;;;;;6.00;5.60;;;;;;;25.05;40.35;96114.03;5039728;28;20235;-79
2022/05/10 06:45:09;;;;;;;5.82;5.32;;;;;;;24.95;40.10;96120.88;5023513;28;20201;-79
2022/05/10 06:47:37;;;;;;;7.57;5.60;;;;;;;25.42;39.19;96120.03;5026484;28;20664;-78
2022/05/10 06:50:03;;;;;;;7.88;6.38;;;;;;;25.87;39.01;96121.44;5033111;28;20203;-77
2022/05/10 06:52:28;;;;;;;10.15;6.40;;;;;;;26.35;38.59;96118.56;5037418;28;20248;-78
2022/05/10 06:54:56;;;;;;;8.30;6.55;;;;;;;25.51;38.92;96122.38;5028919;28;20213;-78
2022/05/10 06:57:21;;;;;;;6.03;5.50;;;;;;;25.52;38.48;96108.84;5013296;28;20174;-78
2022/05/10 06:59:46;;;;;;;6.00;5.40;;;;;;;26.19;37.66;96108.63;5039448;28;20212;-79
2022/05/10 07:02:12;;;;;;;7.10;5.97;;;;;;;26.89;36.13;96105.88;5045094;28;20181;-79
2022/05/10 07:04:37;;;;;;;5.72;5.07;;;;;;;27.92;35.33;96115.53;5036737;28;20694;-77
2022/05/10 07:07:02;;;;;;;5.88;5.38;;;;;;;28.59;33.94;96111.16;5030007;28;20186;-79
2022/05/10 07:09:28;;;;;;;5.65;5.25;;;;;;;28.89;33.24;96113.38;5054010;28;20182;-79
2022/05/10 07:11:53;;;;;;;5.93;5.35;;;;;;;28.38;33.30;96108.22;5025067;28;20206;-78
2022/05/10 07:14:20;;;;;;;5.75;5.35;;;;;;;26.35;36.50;96115.91;5040766;28;20240;-79
2022/05/10 07:16:45;;;;;;;6.05;5.50;;;;;;;26.41;36.79;96109.66;5014350;28;20552;-79
2022/05/10 07:19:11;;;;;;;5.85;5.30;;;;;;;26.33;37.00;96111.84;4994631;28;20183;-78
2022/05/10 07:21:36;;;;;;;6.35;5.57;;;;;;;25.51;37.30;96109.09;5022901;28;20177;-78
2022/05/10 07:24:01;;;;;;;6.63;5.95;;;;;;;26.35;36.10;96104.47;5009935;28;20202;-79
2022/05/10 07:26:26;;;;;;;6.88;5.38;;;;;;;26.14;36.59;96106.66;5042151;28;20193;-79
2022/05/10 07:28:52;;;;;;;6.15;5.65;;;;;;;25.77;38.20;96110.56;5038868;28;20210;-79
2022/05/10 07:31:17;;;;;;;7.35;5.65;;;;;;;25.66;37.63;96109.47;5033768;28;20202;-79
2022/05/10 07:33:42;;;;;;;6.45;5.57;;;;;;;25.26;38.38;96110.03;5058090;28;20181;-78
2022/05/10 07:36:28;;;;;;;5.63;5.22;;;;;;;25.18;38.08;96117.53;5024215;28;20202;-79
2022/05/10 07:38:54;;;;;;;6.40;5.80;;;;;;;25.16;38.23;96114.28;5021350;28;20188;-79
2022/05/10 07:41:22;;;;;;;10.38;5.53;;;;;;;25.79;38.55;96114.59;5034676;28;20182;-79
2022/05/10 07:43:49;;;;;;;6.00;5.35;;;;;;;25.57;38.32;96111.66;5026713;28;20227;-78
2022/05/10 07:46:14;;;;;;;7.78;5.35;;;;;;;26.01;37.62;96120.19;5049414;28;20265;-79
2022/05/10 07:48:39;;;;;;;5.65;5.25;;;;;;;26.47;37.13;96111.41;5019526;28;20186;-78
2022/05/10 07:51:05;;;;;;;6.63;6.03;;;;;;;25.65;38.51;96121.97;5012404;28;20206;-78
2022/05/10 07:53:33;;;;;;;7.10;4.90;;;;;;;25.71;36.52;96120.28;5051542;28;20187;-79
2022/05/10 07:55:59;;;;;;;5.80;5.25;;;;;;;24.92;40.16;96114.16;5027988;28;20203;-79
2022/05/10 07:58:25;;;;;;;9.27;6.40;;;;;;;24.08;42.35;96109.53;5042165;28;20178;-78
2022/05/10 08:00:50;;;;;;;5.65;5.22;;;;;;;24.55;40.03;96119.47;5007493;28;20191;-79
2022/05/10 08:03:21;;;;;;;5.93;5.43;;;;;;;24.42;40.23;96108.22;5014617;28;20179;-77
2022/05/10 08:05:46;;;;;;;5.72;5.32;;;;;;;24.35;41.15;96108.28;5027077;28;20205;-79
2022/05/10 08:08:13;;;;;;;7.28;6.18;;;;;;;24.44;41.60;96112.25;5023926;28;20187;-77
2022/05/10 08:10:39;;;;;;;7.80;5.63;;;;;;;24.13;40.50;96112.34;5005222;28;20192;-77
2022/05/10 08:13:09;;;;;;;6.60;6.05;;;;;;;23.55;42.56;96104.63;5025300;28;20178;-78
2022/05/10 08:15:35;;;;;;;5.45;5.05;;;;;;;23.97;41.13;96101.25;5006753;28;20191;-78
2022/05/10 08:18:00;;;;;;;7.03;5.90;;;;;;;23.45;41.86;96102.47;5020983;28;20571;-78
2022/05/10 08:20:25;;;;;;;8.23;6.85;;;;;;;23.71;41.19;96102.31;5040318;28;20190;-78
2022/05/10 08:22:50;;;;;;;6.50;5.82;;;;;;;23.77;40.80;96105.13;5010774;28;20174;-78
2022/05/10 08:25:16;;;;;;;7.63;6.63;;;;;;;23.17;40.95;96095.72;5010860;28;20583;-78
2022/05/10 08:27:41;;;;;;;7.00;5.80;;;;;;;23.12;41.30;96100.00;5041357;28;20193;-78
2022/05/10 08:30:07;;;;;;;7.93;6.22;;;;;;;22.92;44.04;96099.31;5039126;28;20198;-78
2022/05/10 08:32:32;;;;;;;6.97;6.30;;;;;;;23.23;42.78;96099.34;5019141;28;20195;-78
2022/05/10 08:34:57;;;;;;;7.43;5.85;;;;;;;23.04;44.12;96103.72;5024369;28;20261;-78
2022/05/10 08:37:23;;;;;;;6.05;5.45;;;;;;;22.87;41.25;96097.28;5056161;28;20189;-78
2022/05/10 08:39:48;;;;;;;6.43;5.80;;;;;;;23.51;40.62;96100.81;5029799;28;20189;-78
2022/05/10 08:42:23;;;;;;;9.27;5.90;;;;;;;23.60;41.13;96099.53;5025734;28;20179;-78
2022/05/10 08:44:54;;;;;;;7.60;5.40;;;;;;;23.73;38.53;96099.44;5033730;28;20205;-79
2022/05/10 08:47:19;;;;;;;5.65;5.00;;;;;;;23.40;38.51;96099.63;5038753;28;20174;-79
2022/05/10 08:49:47;;;;;;;5.93;5.30;;;;;;;23.24;38.01;96090.38;5028012;28;20185;-80
2022/05/10 08:52:14;;;;;;;5.22;4.82;;;;;;;23.20;38.86;96094.47;5029645;28;20186;-78
2022/05/10 08:54:40;;;;;;;5.40;4.97;;;;;;;23.48;37.93;96093.25;5040461;28;20201;-79
2022/05/10 08:57:12;;;;;;;6.53;4.72;;;;;;;23.72;38.41;96097.81;5008785;28;20250;-79
2022/05/10 08:59:54;;;;;;;5.82;5.35;;;;;;;23.65;39.81;96095.19;5025524;28;20231;-79
2022/05/10 09:02:44;;;;;;;10.07;6.05;;;;;;;23.32;41.09;96103.38;5054600;28;20195;-80
2022/05/10 09:05:11;;;;;;;9.23;6.22;;;;;;;23.42;42.34;96097.59;5038572;28;20218;-79
2022/05/10 09:08:03;;;;;;;21.98;6.70;;;;;;;23.20;43.40;96104.25;5056078;28;20182;-79
2022/05/10 09:10:39;;;;;;;18.05;6.43;;;;;;;23.20;44.35;96098.97;5063140;28;20210;-80
2022/05/10 09:13:13;;;;;;;23.95;6.97;;;;;;;23.13;44.19;96097.16;5012998;28;20590;-78
2022/05/10 09:15:45;;;;;;;6.93;5.93;;;;;;;22.68;42.84;96100.81;5041364;28;20214;-78
2022/05/10 09:18:24;;;;;;;30.30;8.32;;;;;;;23.33;42.08;96102.34;5046886;28;20670;-79
2022/05/10 09:21:13;;;;;;;10.90;5.60;;;;;;;23.88;41.59;96107.88;5021028;28;20184;-79
2022/05/10 09:23:42;;;;;;;6.28;5.68;;;;;;;24.07;38.96;96103.41;5032720;28;20201;-79
2022/05/10 09:26:10;;;;;;;24.65;6.75;;;;;;;23.96;41.04;96099.66;5015254;28;20202;-77
2022/05/10 09:28:44;;;;;;;7.65;5.28;;;;;;;23.89;41.19;96101.53;5020397;28;20182;-78
2022/05/10 09:34:47;;;;;;;7.70;6.22;;;;;;;23.68;41.16;96104.59;5034554;28;20196;-79
2022/05/10 09:37:23;;;;;;;6.35;5.70;;;;;;;23.18;42.10;96091.22;5050749;28;20190;-78
2022/05/10 09:39:57;;;;;;;6.15;5.65;;;;;;;23.57;39.79;96099.94;5043482;28;20186;-78
2022/05/10 09:42:33;;;;;;;8.80;5.82;;;;;;;23.96;39.73;96094.34;5036311;28;20260;-80
2022/05/10 09:45:24;;;;;;;6.25;5.75;;;;;;;24.71;38.39;96096.84;5015642;28;20217;-78
2022/05/10 09:48:04;;;;;;;6.43;5.90;;;;;;;24.35;41.09;96089.69;5019449;28;20644;-78
2022/05/10 09:50:32;;;;;;;6.18;5.60;;;;;;;23.62;40.76;96100.94;5006073;28;20606;-77
2022/05/10 09:53:06;;;;;;;5.78;5.10;;;;;;;23.83;39.44;96091.78;5024689;28;20618;-78
2022/05/10 09:55:32;;;;;;;5.60;5.20;;;;;;;24.12;40.50;96086.81;5034182;28;20220;-79
2022/05/10 09:58:11;;;;;;;5.57;5.10;;;;;;;24.05;40.46;96086.09;5027065;28;20186;-79
2022/05/10 10:00:42;;;;;;;5.82;5.32;;;;;;;24.08;39.12;96085.66;5040747;28;20173;-79
2022/05/10 10:03:07;;;;;;;7.38;5.85;;;;;;;23.48;40.83;96080.81;5034796;28;20189;-79
2022/05/10 10:05:34;;;;;;;5.95;5.45;;;;;;;24.08;39.30;96083.00;5024414;28;20203;-78
2022/05/10 10:08:00;;;;;;;6.03;5.53;;;;;;;23.94;39.80;96077.00;5039327;28;20586;-79
2022/05/10 10:10:27;;;;;;;5.88;5.38;;;;;;;23.58;40.87;96083.00;5026131;28;20206;-79
2022/05/10 10:12:53;;;;;;;6.28;5.68;;;;;;;24.15;40.40;96084.56;5031999;28;20197;-79
2022/05/10 10:15:34;;;;;;;6.05;5.55;;;;;;;23.90;40.22;96089.91;5011916;28;20688;-79
2022/05/10 10:18:04;;;;;;;6.57;6.00;;;;;;;23.94;39.25;96084.97;5058327;28;20184;-78
2022/05/10 10:20:43;;;;;;;5.80;5.40;;;;;;;23.58;38.88;96085.63;5005741;28;20176;-78
2022/05/10 10:23:27;;;;;;;7.53;5.53;;;;;;;23.32;40.13;96076.88;5009034;28;20190;-79
2022/05/10 10:25:57;;;;;;;5.88;5.38;;;;;;;22.91;40.98;96090.56;5020977;28;20308;-79
2022/05/10 10:28:27;;;;;;;7.13;5.15;;;;;;;23.02;41.29;96081.13;5022028;28;20213;-78
2022/05/10 10:31:00;;;;;;;6.85;5.45;;;;;;;22.94;41.17;96086.66;5011292;28;20193;-79
2022/05/10 10:33:32;;;;;;;5.70;5.10;;;;;;;22.82;41.71;96078.56;5020259;28;20242;-79
2022/05/10 10:36:03;;;;;;;8.75;5.95;;;;;;;22.57;42.29;96076.63;5022051;28;20205;-79
2022/05/10 10:38:37;;;;;;;6.97;5.80;;;;;;;22.43;42.69;96079.50;5036814;28;20190;-77
2022/05/10 10:41:05;;;;;;;6.85;6.25;;;;;;;22.17;43.28;96088.31;5009169;28;20183;-79
2022/05/10 10:43:45;;;;;;;6.88;5.78;;;;;;;22.38;42.32;96068.75;5009713;28;20238;-78
2022/05/10 10:46:33;;;;;;;7.10;5.85;;;;;;;22.79;41.31;96073.66;5045874;28;20198;-79
2022/05/10 10:49:07;;;;;;;5.97;5.47;;;;;;;22.94;40.66;96070.78;5005812;28;20727;-80
2022/05/10 10:51:33;;;;;;;5.90;5.40;;;;;;;23.47;39.50;96068.59;5024729;28;20186;-78
2022/05/10 10:54:00;;;;;;;7.85;6.07;;;;;;;23.61;40.07;96077.31;5010393;28;20277;-79
2022/05/10 10:56:37;;;;;;;5.97;5.47;;;;;;;23.76;41.45;96067.16;5025719;28;20328;-79
2022/05/10 10:59:24;;;;;;;6.45;5.85;;;;;;;22.95;40.81;96070.56;5011698;28;20210;-79
2022/05/10 11:02:02;;;;;;;6.22;5.63;;;;;;;23.03;40.45;96065.00;5042270;28;20210;-78
2022/05/10 11:04:40;;;;;;;5.78;5.25;;;;;;;23.00;40.91;96062.81;5041650;28;20183;-79
2022/05/10 11:07:34;;;;;;;6.93;5.10;;;;;;;22.99;40.58;96055.88;5037928;28;20186;-78
2022/05/10 11:10:26;;;;;;;6.10;5.57;;;;;;;23.48;40.01;96064.09;5023720;28;20195;-79
2022/05/10 11:13:11;;;;;;;6.43;5.47;;;;;;;23.46;40.85;96059.03;5032341;28;20210;-78
2022/05/10 11:16:34;;;;;;;7.68;5.55;;;;;;;23.46;40.23;96057.19;5022789;28;20264;-79
2022/05/10 11:19:24;;;;;;;5.78;5.20;;;;;;;23.74;40.27;96053.31;4967100;28;20216;-79
2022/05/10 11:22:17;;;;;;;6.65;6.05;;;;;;;23.71;40.16;96035.19;4950520;28;20193;-78
2022/05/10 11:24:49;;;;;;;6.30;4.97;;;;;;;24.18;40.43;96043.50;4959317;28;20649;-78
2022/05/10 11:27:39;;;;;;;6.60;5.95;;;;;;;23.96;39.18;96036.00;4949614;28;20272;-78
2022/05/10 11:30:22;;;;;;;5.65;5.15;;;;;;;24.06;39.00;96034.66;4976197;28;20188;-79
2022/05/10 11:33:06;;;;;;;6.75;5.97;;;;;;;23.56;39.51;96029.38;4960249;28;20180;-78
2022/05/10 11:35:53;;;;;;;6.30;4.55;;;;;;;24.71;39.14;96040.25;4968245;28;20232;-79
2022/05/10 11:38:34;;;;;;;5.50;5.00;;;;;;;24.25;38.45;96036.28;4976367;28;20195;-80
2022/05/10 11:41:29;;;;;;;5.45;5.05;;;;;;;24.58;39.50;96030.63;4967103;28;20231;-79
2022/05/10 11:44:19;;;;;;;6.00;5.35;;;;;;;24.49;37.67;96035.44;4972754;28;20225;-79
2022/05/10 11:47:00;;;;;;;5.80;5.00;;;;;;;25.18;38.76;96032.47;4956506;29;20221;-78
2022/05/10 11:49:35;;;;;;;5.07;4.57;;;;;;;24.66;36.06;96024.22;4995188;28;20186;-78
2022/05/10 11:52:38;;;;;;;8.45;4.70;;;;;;;24.55;38.08;96031.06;5019312;28;20206;-80
2022/05/10 11:55:22;;;;;;;5.80;5.30;;;;;;;23.86;39.61;96018.97;5035393;28;20227;-79
2022/05/10 11:57:49;;;;;;;5.72;5.22;;;;;;;24.79;39.10;96029.31;5014251;28;20183;-78
2022/05/10 12:00:27;;;;;;;6.60;5.90;;;;;;;25.46;36.42;96013.25;5042402;28;20179;-79
2022/05/10 12:02:53;;;;;;;5.72;5.22;;;;;;;25.70;36.91;96015.72;5054601;28;20205;-76
2022/05/10 12:05:28;;;;;;;5.47;4.93;;;;;;;25.45;36.80;96007.13;5031357;28;20699;-79
2022/05/10 12:07:58;;;;;;;5.32;4.78;;;;;;;25.82;35.22;96005.09;5024873;28;20204;-79
2022/05/10 12:10:34;;;;;;;6.03;5.53;;;;;;;24.74;35.81;96000.81;5017186;28;20190;-80